sensor_id;sensor_type;location;lat;lon;timestamp;temperature;humidity
2389;DHT22;1205;47.984;7.668;2023-04-29T00:00:51;15.50;99.90
2389;DHT22;1205;47.984;7.668;2023-04-29T00:03:17;15.50;99.90
2389;DHT22;1205;47.984;7.668;2023-04-29T00:05:44;15.50;99.90
2389;DHT22;1205;47.984;7.668;2023-04-29T00:08:09;15.40;99.90
2389;DHT22;1205;47.984;7.668;2023-04-29T00:10:36;15.40;99.90
2389;DHT22;1205;47.984;7.668;2023-04-29T00:13:02;15.40;99.90
2389;DHT22;1205;47.984;7.668;2023-04-29T00:15:27;15.40;99.90
2389;DHT22;1205;47.984;7.668;2023-04-29T00:17:53;15.40;99.90
2389;DHT22;1205;47.984;7.668;2023-04-29T00:20:18;15.30;99.90
2389;DHT22;1205;47.984;7.668;2023-04-29T00:22:44;15.30;99.90
2389;DHT22;1205;47.984;7.668;2023-04-29T00:25:10;15.30;99.90
2389;DHT22;1205;47.984;7.668;2023-04-29T00:27:36;15.30;99.90
2389;DHT22;1205;47.984;7.668;2023-04-29T00:30:02;15.20;99.90
2389;DHT22;1205;47.984;7.668;2023-04-29T00:32:28;15.20;99.90
2389;DHT22;1205;47.984;7.668;2023-04-29T00:34:53;15.20;99.90
2389;DHT22;1205;47.984;7.668;2023-04-29T00:37:19;15.10;99.90
2389;DHT22;1205;47.984;7.668;2023-04-29T00:39:45;15.10;99.90
2389;DHT22;1205;47.984;7.668;2023-04-29T00:42:10;15.10;99.90
2389;DHT22;1205;47.984;7.668;2023-04-29T00:44:36;15.10;99.90
2389;DHT22;1205;47.984;7.668;2023-04-29T00:47:02;15.20;99.90
2389;DHT22;1205;47.984;7.668;2023-04-29T00:49:28;15.20;99.90
2389;DHT22;1205;47.984;7.668;2023-04-29T00:51:55;15.20;99.90
2389;DHT22;1205;47.984;7.668;2023-04-29T00:54:22;15.20;99.90
2389;DHT22;1205;47.984;7.668;2023-04-29T00:56:48;15.20;99.90
2389;DHT22;1205;47.984;7.668;2023-04-29T00:59:14;15.20;99.90
2389;DHT22;1205;47.984;7.668;2023-04-29T01:01:41;15.20;99.90
2389;DHT22;1205;47.984;7.668;2023-04-29T01:04:06;15.20;99.90
2389;DHT22;1205;47.984;7.668;2023-04-29T01:12:53;15.20;99.90
2389;DHT22;1205;47.984;7.668;2023-04-29T01:15:22;15.10;99.90
2389;DHT22;1205;47.984;7.668;2023-04-29T01:18:11;15.00;99.90
2389;DHT22;1205;47.984;7.668;2023-04-29T01:20:38;14.90;99.90
2389;DHT22;1205;47.984;7.668;2023-04-29T01:23:05;14.80;99.90
2389;DHT22;1205;47.984;7.668;2023-04-29T01:25:30;14.80;99.90
2389;DHT22;1205;47.984;7.668;2023-04-29T01:31:07;14.80;99.90
2389;DHT22;1205;47.984;7.668;2023-04-29T01:34:17;14.80;99.90
2389;DHT22;1205;47.984;7.668;2023-04-29T01:39:44;14.70;99.90
2389;DHT22;1205;47.984;7.668;2023-04-29T01:42:45;14.70;99.90
2389;DHT22;1205;47.984;7.668;2023-04-29T01:45:14;14.70;99.90
2389;DHT22;1205;47.984;7.668;2023-04-29T01:47:42;14.70;99.90
2389;DHT22;1205;47.984;7.668;2023-04-29T01:50:09;14.80;99.90
2389;DHT22;1205;47.984;7.668;2023-04-29T01:52:34;14.60;99.90
2389;DHT22;1205;47.984;7.668;2023-04-29T01:55:01;14.60;99.90
2389;DHT22;1205;47.984;7.668;2023-04-29T01:57:27;14.60;99.90
2389;DHT22;1205;47.984;7.668;2023-04-29T01:59:53;14.60;99.90
2389;DHT22;1205;47.984;7.668;2023-04-29T02:02:18;14.60;99.90
2389;DHT22;1205;47.984;7.668;2023-04-29T02:04:47;14.50;99.90
2389;DHT22;1205;47.984;7.668;2023-04-29T02:07:13;14.50;99.90
2389;DHT22;1205;47.984;7.668;2023-04-29T02:09:39;14.50;99.90
2389;DHT22;1205;47.984;7.668;2023-04-29T02:12:05;14.50;99.90
2389;DHT22;1205;47.984;7.668;2023-04-29T02:14:30;14.50;99.90
2389;DHT22;1205;47.984;7.668;2023-04-29T02:16:56;14.50;99.90
2389;DHT22;1205;47.984;7.668;2023-04-29T02:19:22;14.60;99.90
2389;DHT22;1205;47.984;7.668;2023-04-29T02:21:47;14.50;99.90
2389;DHT22;1205;47.984;7.668;2023-04-29T02:24:13;14.50;99.90
2389;DHT22;1205;47.984;7.668;2023-04-29T02:26:38;14.60;99.90
2389;DHT22;1205;47.984;7.668;2023-04-29T02:29:04;14.60;99.90
2389;DHT22;1205;47.984;7.668;2023-04-29T02:31:30;14.60;99.90
2389;DHT22;1205;47.984;7.668;2023-04-29T02:33:55;14.60;99.90
2389;DHT22;1205;47.984;7.668;2023-04-29T02:36:21;14.60;99.90
2389;DHT22;1205;47.984;7.668;2023-04-29T02:38:47;14.50;99.90
2389;DHT22;1205;47.984;7.668;2023-04-29T02:41:18;14.50;99.90
2389;DHT22;1205;47.984;7.668;2023-04-29T02:43:43;14.40;99.90
2389;DHT22;1205;47.984;7.668;2023-04-29T02:46:09;14.40;99.90
2389;DHT22;1205;47.984;7.668;2023-04-29T02:48:35;14.40;99.90
2389;DHT22;1205;47.984;7.668;2023-04-29T02:51:01;14.30;99.90
2389;DHT22;1205;47.984;7.668;2023-04-29T02:53:26;14.40;99.90
2389;DHT22;1205;47.984;7.668;2023-04-29T02:55:52;14.40;99.90
2389;DHT22;1205;47.984;7.668;2023-04-29T02:58:17;14.40;99.90
2389;DHT22;1205;47.984;7.668;2023-04-29T03:00:43;14.40;99.90
2389;DHT22;1205;47.984;7.668;2023-04-29T03:03:09;14.30;99.90
2389;DHT22;1205;47.984;7.668;2023-04-29T03:05:35;14.30;99.90
2389;DHT22;1205;47.984;7.668;2023-04-29T03:08:00;14.30;99.90
2389;DHT22;1205;47.984;7.668;2023-04-29T03:10:27;14.30;99.90
2389;DHT22;1205;47.984;7.668;2023-04-29T03:12:52;14.20;99.90
2389;DHT22;1205;47.984;7.668;2023-04-29T03:15:18;14.20;99.90
2389;DHT22;1205;47.984;7.668;2023-04-29T03:17:44;14.20;99.90
2389;DHT22;1205;47.984;7.668;2023-04-29T03:20:11;14.20;99.90
2389;DHT22;1205;47.984;7.668;2023-04-29T03:22:36;14.10;99.90
2389;DHT22;1205;47.984;7.668;2023-04-29T03:25:02;14.00;99.90
2389;DHT22;1205;47.984;7.668;2023-04-29T03:27:28;14.00;99.90
2389;DHT22;1205;47.984;7.668;2023-04-29T03:29:53;14.00;99.90
2389;DHT22;1205;47.984;7.668;2023-04-29T03:32:19;14.10;99.90
2389;DHT22;1205;47.984;7.668;2023-04-29T03:34:44;14.00;99.90
2389;DHT22;1205;47.984;7.668;2023-04-29T03:37:10;14.10;99.90
2389;DHT22;1205;47.984;7.668;2023-04-29T03:39:36;14.00;99.90
2389;DHT22;1205;47.984;7.668;2023-04-29T03:42:01;14.00;99.90
2389;DHT22;1205;47.984;7.668;2023-04-29T03:44:27;13.90;99.90
2389;DHT22;1205;47.984;7.668;2023-04-29T03:46:53;13.80;99.90
2389;DHT22;1205;47.984;7.668;2023-04-29T03:49:19;13.80;99.90
2389;DHT22;1205;47.984;7.668;2023-04-29T03:51:45;13.80;99.90
2389;DHT22;1205;47.984;7.668;2023-04-29T03:54:11;13.80;99.90
2389;DHT22;1205;47.984;7.668;2023-04-29T03:56:37;13.90;99.90
2389;DHT22;1205;47.984;7.668;2023-04-29T03:59:03;13.90;99.90
2389;DHT22;1205;47.984;7.668;2023-04-29T04:01:28;13.80;99.90
2389;DHT22;1205;47.984;7.668;2023-04-29T04:03:54;13.80;99.90
2389;DHT22;1205;47.984;7.668;2023-04-29T04:06:19;13.80;99.90
2389;DHT22;1205;47.984;7.668;2023-04-29T04:08:45;13.70;99.90
2389;DHT22;1205;47.984;7.668;2023-04-29T04:11:10;13.70;99.90
2389;DHT22;1205;47.984;7.668;2023-04-29T04:13:40;13.70;99.90
2389;DHT22;1205;47.984;7.668;2023-04-29T04:16:06;13.60;99.90
2389;DHT22;1205;47.984;7.668;2023-04-29T04:18:32;13.60;99.90
2389;DHT22;1205;47.984;7.668;2023-04-29T04:21:03;13.60;99.90
2389;DHT22;1205;47.984;7.668;2023-04-29T04:23:29;13.50;99.90
2389;DHT22;1205;47.984;7.668;2023-04-29T04:25:54;13.10;99.90
2389;DHT22;1205;47.984;7.668;2023-04-29T04:28:20;13.20;99.90
2389;DHT22;1205;47.984;7.668;2023-04-29T04:30:45;13.20;99.90
2389;DHT22;1205;47.984;7.668;2023-04-29T04:33:12;13.30;99.90
2389;DHT22;1205;47.984;7.668;2023-04-29T04:35:37;13.30;99.90
2389;DHT22;1205;47.984;7.668;2023-04-29T04:38:04;13.30;99.90
2389;DHT22;1205;47.984;7.668;2023-04-29T04:40:29;13.20;99.90
2389;DHT22;1205;47.984;7.668;2023-04-29T04:42:55;13.20;99.90
2389;DHT22;1205;47.984;7.668;2023-04-29T04:45:21;13.20;99.90
2389;DHT22;1205;47.984;7.668;2023-04-29T04:47:46;13.20;99.90
2389;DHT22;1205;47.984;7.668;2023-04-29T04:50:12;13.30;99.90
2389;DHT22;1205;47.984;7.668;2023-04-29T04:52:38;13.40;99.90
2389;DHT22;1205;47.984;7.668;2023-04-29T04:55:03;13.50;99.90
2389;DHT22;1205;47.984;7.668;2023-04-29T04:57:29;13.50;99.90
2389;DHT22;1205;47.984;7.668;2023-04-29T04:59:54;13.60;99.90
2389;DHT22;1205;47.984;7.668;2023-04-29T05:02:20;13.40;99.90
2389;DHT22;1205;47.984;7.668;2023-04-29T05:04:45;13.40;99.90
2389;DHT22;1205;47.984;7.668;2023-04-29T05:07:11;13.50;99.90
2389;DHT22;1205;47.984;7.668;2023-04-29T05:09:36;13.50;99.90
2389;DHT22;1205;47.984;7.668;2023-04-29T05:12:02;13.60;99.90
2389;DHT22;1205;47.984;7.668;2023-04-29T05:14:28;13.60;99.90
2389;DHT22;1205;47.984;7.668;2023-04-29T05:17:00;13.70;99.90
2389;DHT22;1205;47.984;7.668;2023-04-29T05:19:25;13.80;99.90
2389;DHT22;1205;47.984;7.668;2023-04-29T05:21:51;13.80;99.90
2389;DHT22;1205;47.984;7.668;2023-04-29T05:24:17;13.80;99.90
2389;DHT22;1205;47.984;7.668;2023-04-29T05:26:43;14.00;99.90
2389;DHT22;1205;47.984;7.668;2023-04-29T05:29:09;14.00;99.90
2389;DHT22;1205;47.984;7.668;2023-04-29T05:31:35;14.10;99.90
2389;DHT22;1205;47.984;7.668;2023-04-29T05:34:01;14.20;99.90
2389;DHT22;1205;47.984;7.668;2023-04-29T05:36:27;14.30;99.90
2389;DHT22;1205;47.984;7.668;2023-04-29T05:38:52;14.40;99.90
2389;DHT22;1205;47.984;7.668;2023-04-29T05:41:18;14.40;99.90
2389;DHT22;1205;47.984;7.668;2023-04-29T05:43:44;14.40;99.90
2389;DHT22;1205;47.984;7.668;2023-04-29T05:46:10;14.50;99.90
2389;DHT22;1205;47.984;7.668;2023-04-29T05:48:35;14.50;99.90
2389;DHT22;1205;47.984;7.668;2023-04-29T05:51:01;14.50;99.90
2389;DHT22;1205;47.984;7.668;2023-04-29T05:53:26;14.60;99.90
2389;DHT22;1205;47.984;7.668;2023-04-29T05:55:52;15.10;99.90
2389;DHT22;1205;47.984;7.668;2023-04-29T05:58:17;15.30;99.90
2389;DHT22;1205;47.984;7.668;2023-04-29T06:00:43;15.60;99.90
2389;DHT22;1205;47.984;7.668;2023-04-29T06:03:09;15.80;99.90
2389;DHT22;1205;47.984;7.668;2023-04-29T06:05:38;16.00;99.90
2389;DHT22;1205;47.984;7.668;2023-04-29T06:08:04;15.90;99.90
2389;DHT22;1205;47.984;7.668;2023-04-29T06:10:30;16.00;99.90
2389;DHT22;1205;47.984;7.668;2023-04-29T06:12:56;16.00;99.90
2389;DHT22;1205;47.984;7.668;2023-04-29T06:15:22;15.90;99.90
2389;DHT22;1205;47.984;7.668;2023-04-29T06:17:47;15.80;99.90
2389;DHT22;1205;47.984;7.668;2023-04-29T06:20:13;16.20;99.90
2389;DHT22;1205;47.984;7.668;2023-04-29T06:22:38;16.30;99.90
2389;DHT22;1205;47.984;7.668;2023-04-29T06:25:04;16.30;99.90
2389;DHT22;1205;47.984;7.668;2023-04-29T06:27:30;16.40;99.90
2389;DHT22;1205;47.984;7.668;2023-04-29T06:29:56;16.60;99.90
2389;DHT22;1205;47.984;7.668;2023-04-29T06:32:21;16.80;99.90
2389;DHT22;1205;47.984;7.668;2023-04-29T06:34:47;16.80;99.90
2389;DHT22;1205;47.984;7.668;2023-04-29T06:37:12;16.60;99.90
2389;DHT22;1205;47.984;7.668;2023-04-29T06:39:38;16.80;99.90
2389;DHT22;1205;47.984;7.668;2023-04-29T06:42:03;16.90;99.90
2389;DHT22;1205;47.984;7.668;2023-04-29T06:44:29;17.00;99.90
2389;DHT22;1205;47.984;7.668;2023-04-29T06:46:55;16.60;99.90
2389;DHT22;1205;47.984;7.668;2023-04-29T06:49:20;16.70;99.90
2389;DHT22;1205;47.984;7.668;2023-04-29T06:51:46;16.90;99.90
2389;DHT22;1205;47.984;7.668;2023-04-29T06:54:12;17.10;99.90
2389;DHT22;1205;47.984;7.668;2023-04-29T06:56:37;17.30;99.90
2389;DHT22;1205;47.984;7.668;2023-04-29T06:59:03;17.40;99.90
2389;DHT22;1205;47.984;7.668;2023-04-29T07:01:29;17.70;99.90
2389;DHT22;1205;47.984;7.668;2023-04-29T07:03:54;17.70;99.90
2389;DHT22;1205;47.984;7.668;2023-04-29T07:06:21;17.80;99.90
2389;DHT22;1205;47.984;7.668;2023-04-29T07:08:46;17.20;99.90
2389;DHT22;1205;47.984;7.668;2023-04-29T07:11:12;16.90;99.90
2389;DHT22;1205;47.984;7.668;2023-04-29T07:13:38;16.70;99.90
2389;DHT22;1205;47.984;7.668;2023-04-29T07:16:03;16.70;99.90
2389;DHT22;1205;47.984;7.668;2023-04-29T07:18:29;16.50;99.90
2389;DHT22;1205;47.984;7.668;2023-04-29T07:21:00;16.30;99.90
2389;DHT22;1205;47.984;7.668;2023-04-29T07:23:25;15.90;99.90
2389;DHT22;1205;47.984;7.668;2023-04-29T07:25:51;16.10;99.90
2389;DHT22;1205;47.984;7.668;2023-04-29T07:28:17;16.00;99.90
2389;DHT22;1205;47.984;7.668;2023-04-29T07:30:42;16.00;99.90
2389;DHT22;1205;47.984;7.668;2023-04-29T07:33:08;16.00;99.90
2389;DHT22;1205;47.984;7.668;2023-04-29T07:35:34;15.90;99.90
2389;DHT22;1205;47.984;7.668;2023-04-29T07:38:00;15.70;99.90
2389;DHT22;1205;47.984;7.668;2023-04-29T07:40:25;15.80;99.90
2389;DHT22;1205;47.984;7.668;2023-04-29T07:42:51;16.10;99.90
2389;DHT22;1205;47.984;7.668;2023-04-29T07:45:16;16.50;99.90
2389;DHT22;1205;47.984;7.668;2023-04-29T07:47:42;16.90;99.90
2389;DHT22;1205;47.984;7.668;2023-04-29T07:50:08;17.00;99.90
2389;DHT22;1205;47.984;7.668;2023-04-29T07:52:33;17.00;99.90
2389;DHT22;1205;47.984;7.668;2023-04-29T07:54:59;16.70;99.90
2389;DHT22;1205;47.984;7.668;2023-04-29T07:57:25;16.90;99.90
2389;DHT22;1205;47.984;7.668;2023-04-29T07:59:53;17.20;99.90
2389;DHT22;1205;47.984;7.668;2023-04-29T08:02:19;17.40;99.90
2389;DHT22;1205;47.984;7.668;2023-04-29T08:04:45;17.70;99.90
2389;DHT22;1205;47.984;7.668;2023-04-29T08:07:11;17.90;99.90
2389;DHT22;1205;47.984;7.668;2023-04-29T08:09:37;18.10;99.90
2389;DHT22;1205;47.984;7.668;2023-04-29T08:12:02;18.20;99.90
2389;DHT22;1205;47.984;7.668;2023-04-29T08:14:28;18.10;99.90
2389;DHT22;1205;47.984;7.668;2023-04-29T08:16:54;17.70;99.90
2389;DHT22;1205;47.984;7.668;2023-04-29T08:19:20;17.90;99.90
2389;DHT22;1205;47.984;7.668;2023-04-29T08:21:46;17.90;99.90
2389;DHT22;1205;47.984;7.668;2023-04-29T08:24:12;17.80;99.90
2389;DHT22;1205;47.984;7.668;2023-04-29T08:26:39;17.80;99.90
2389;DHT22;1205;47.984;7.668;2023-04-29T08:29:05;17.90;99.90
2389;DHT22;1205;47.984;7.668;2023-04-29T08:31:31;17.80;99.90
2389;DHT22;1205;47.984;7.668;2023-04-29T08:33:57;18.10;99.90
2389;DHT22;1205;47.984;7.668;2023-04-29T08:36:23;18.20;99.90
2389;DHT22;1205;47.984;7.668;2023-04-29T08:38:49;18.40;99.90
2389;DHT22;1205;47.984;7.668;2023-04-29T08:41:17;18.40;99.90
2389;DHT22;1205;47.984;7.668;2023-04-29T08:43:42;18.40;99.90
2389;DHT22;1205;47.984;7.668;2023-04-29T08:46:09;18.30;99.90
2389;DHT22;1205;47.984;7.668;2023-04-29T08:48:36;18.30;99.90
2389;DHT22;1205;47.984;7.668;2023-04-29T08:51:02;18.20;99.90
2389;DHT22;1205;47.984;7.668;2023-04-29T08:53:28;18.10;99.90
2389;DHT22;1205;47.984;7.668;2023-04-29T08:55:56;18.10;99.90
2389;DHT22;1205;47.984;7.668;2023-04-29T08:58:24;18.10;99.90
2389;DHT22;1205;47.984;7.668;2023-04-29T09:00:51;17.80;99.90
2389;DHT22;1205;47.984;7.668;2023-04-29T09:05:52;17.80;99.90
2389;DHT22;1205;47.984;7.668;2023-04-29T09:08:20;18.00;99.90
2389;DHT22;1205;47.984;7.668;2023-04-29T09:10:46;18.10;99.90
2389;DHT22;1205;47.984;7.668;2023-04-29T09:13:25;18.20;99.90
2389;DHT22;1205;47.984;7.668;2023-04-29T09:15:51;18.30;99.90
2389;DHT22;1205;47.984;7.668;2023-04-29T09:18:46;18.20;99.90
2389;DHT22;1205;47.984;7.668;2023-04-29T09:21:23;18.50;99.90
2389;DHT22;1205;47.984;7.668;2023-04-29T09:23:56;18.60;99.90
2389;DHT22;1205;47.984;7.668;2023-04-29T09:26:22;18.60;99.90
2389;DHT22;1205;47.984;7.668;2023-04-29T09:29:11;19.00;99.90
2389;DHT22;1205;47.984;7.668;2023-04-29T09:31:38;19.10;99.90
2389;DHT22;1205;47.984;7.668;2023-04-29T09:34:04;18.80;99.90
2389;DHT22;1205;47.984;7.668;2023-04-29T09:36:42;18.60;99.90
2389;DHT22;1205;47.984;7.668;2023-04-29T09:39:21;18.40;99.90
2389;DHT22;1205;47.984;7.668;2023-04-29T09:44:19;18.50;99.90
2389;DHT22;1205;47.984;7.668;2023-04-29T09:47:03;18.60;99.90
2389;DHT22;1205;47.984;7.668;2023-04-29T09:49:33;18.60;99.90
2389;DHT22;1205;47.984;7.668;2023-04-29T09:52:11;18.40;99.90
2389;DHT22;1205;47.984;7.668;2023-04-29T09:54:38;18.40;99.90
2389;DHT22;1205;47.984;7.668;2023-04-29T09:57:06;18.50;99.90
2389;DHT22;1205;47.984;7.668;2023-04-29T09:59:33;18.60;99.90
2389;DHT22;1205;47.984;7.668;2023-04-29T10:02:16;18.90;99.90
2389;DHT22;1205;47.984;7.668;2023-04-29T10:04:52;18.90;99.90
2389;DHT22;1205;47.984;7.668;2023-04-29T10:07:18;18.50;99.90
2389;DHT22;1205;47.984;7.668;2023-04-29T10:09:45;18.50;99.90
2389;DHT22;1205;47.984;7.668;2023-04-29T10:12:15;18.70;99.90
2389;DHT22;1205;47.984;7.668;2023-04-29T10:14:47;18.70;99.90
2389;DHT22;1205;47.984;7.668;2023-04-29T10:17:23;18.80;99.90
2389;DHT22;1205;47.984;7.668;2023-04-29T10:19:57;18.60;99.90
2389;DHT22;1205;47.984;7.668;2023-04-29T10:25:00;18.50;99.90
2389;DHT22;1205;47.984;7.668;2023-04-29T10:27:26;18.40;99.90
2389;DHT22;1205;47.984;7.668;2023-04-29T10:29:55;18.50;99.90
2389;DHT22;1205;47.984;7.668;2023-04-29T10:32:24;18.90;99.90
2389;DHT22;1205;47.984;7.668;2023-04-29T10:34:52;19.00;99.90
2389;DHT22;1205;47.984;7.668;2023-04-29T10:37:20;18.70;99.90
2389;DHT22;1205;47.984;7.668;2023-04-29T10:42:43;18.90;99.90
2389;DHT22;1205;47.984;7.668;2023-04-29T10:45:29;18.70;99.90
2389;DHT22;1205;47.984;7.668;2023-04-29T10:50:34;18.90;99.90
2389;DHT22;1205;47.984;7.668;2023-04-29T10:53:04;18.80;99.70
2389;DHT22;1205;47.984;7.668;2023-04-29T10:55:30;19.00;99.90
2389;DHT22;1205;47.984;7.668;2023-04-29T10:57:56;19.00;99.70
2389;DHT22;1205;47.984;7.668;2023-04-29T11:00:26;19.00;99.90
2389;DHT22;1205;47.984;7.668;2023-04-29T11:02:53;19.10;99.90
2389;DHT22;1205;47.984;7.668;2023-04-29T11:05:32;18.90;99.20
2389;DHT22;1205;47.984;7.668;2023-04-29T11:08:10;18.80;99.90
2389;DHT22;1205;47.984;7.668;2023-04-29T11:10:42;18.80;99.30
2389;DHT22;1205;47.984;7.668;2023-04-29T11:13:27;18.70;99.80
2389;DHT22;1205;47.984;7.668;2023-04-29T11:16:03;18.90;99.90
2389;DHT22;1205;47.984;7.668;2023-04-29T11:18:29;19.00;99.20
2389;DHT22;1205;47.984;7.668;2023-04-29T11:23:37;19.00;99.00
2389;DHT22;1205;47.984;7.668;2023-04-29T11:26:03;18.80;99.00
2389;DHT22;1205;47.984;7.668;2023-04-29T11:28:30;19.00;99.80
2389;DHT22;1205;47.984;7.668;2023-04-29T11:30:56;19.00;99.90
2389;DHT22;1205;47.984;7.668;2023-04-29T11:33:26;19.10;99.30
2389;DHT22;1205;47.984;7.668;2023-04-29T11:35:53;18.80;99.40
2389;DHT22;1205;47.984;7.668;2023-04-29T11:38:28;19.10;99.50
2389;DHT22;1205;47.984;7.668;2023-04-29T11:40:55;19.30;99.30
2389;DHT22;1205;47.984;7.668;2023-04-29T11:43:22;19.30;98.80
2389;DHT22;1205;47.984;7.668;2023-04-29T11:45:48;19.10;98.50
2389;DHT22;1205;47.984;7.668;2023-04-29T11:48:24;19.10;98.60
2389;DHT22;1205;47.984;7.668;2023-04-29T11:50:58;19.20;98.90
2389;DHT22;1205;47.984;7.668;2023-04-29T11:53:25;19.10;98.70
2389;DHT22;1205;47.984;7.668;2023-04-29T11:55:52;19.10;98.60
2389;DHT22;1205;47.984;7.668;2023-04-29T11:58:22;19.20;98.90
2389;DHT22;1205;47.984;7.668;2023-04-29T12:00:48;19.20;98.30
2389;DHT22;1205;47.984;7.668;2023-04-29T12:05:47;19.40;98.40
2389;DHT22;1205;47.984;7.668;2023-04-29T12:08:19;19.20;98.30
2389;DHT22;1205;47.984;7.668;2023-04-29T12:10:46;19.40;98.30
2389;DHT22;1205;47.984;7.668;2023-04-29T12:13:11;19.60;98.80
2389;DHT22;1205;47.984;7.668;2023-04-29T12:15:37;19.70;98.10
2389;DHT22;1205;47.984;7.668;2023-04-29T12:18:03;19.50;97.70
2389;DHT22;1205;47.984;7.668;2023-04-29T12:20:29;19.50;97.40
2389;DHT22;1205;47.984;7.668;2023-04-29T12:22:55;19.50;98.50
2389;DHT22;1205;47.984;7.668;2023-04-29T12:25:25;19.50;98.70
2389;DHT22;1205;47.984;7.668;2023-04-29T12:27:51;19.40;97.70
2389;DHT22;1205;47.984;7.668;2023-04-29T12:30:16;19.30;97.70
2389;DHT22;1205;47.984;7.668;2023-04-29T12:32:42;19.20;98.00
2389;DHT22;1205;47.984;7.668;2023-04-29T12:35:14;19.20;98.60
2389;DHT22;1205;47.984;7.668;2023-04-29T12:37:47;19.30;98.20
2389;DHT22;1205;47.984;7.668;2023-04-29T12:40:13;19.30;98.10
2389;DHT22;1205;47.984;7.668;2023-04-29T12:42:40;19.20;98.00
2389;DHT22;1205;47.984;7.668;2023-04-29T12:45:06;19.10;98.00
2389;DHT22;1205;47.984;7.668;2023-04-29T12:47:32;19.10;98.30
2389;DHT22;1205;47.984;7.668;2023-04-29T12:50:00;19.20;98.50
2389;DHT22;1205;47.984;7.668;2023-04-29T12:52:25;19.20;98.60
2389;DHT22;1205;47.984;7.668;2023-04-29T12:54:51;19.40;99.00
2389;DHT22;1205;47.984;7.668;2023-04-29T12:57:16;19.50;98.70
2389;DHT22;1205;47.984;7.668;2023-04-29T12:59:42;19.30;98.10
2389;DHT22;1205;47.984;7.668;2023-04-29T13:02:07;19.30;98.30
2389;DHT22;1205;47.984;7.668;2023-04-29T13:04:34;19.30;98.10
2389;DHT22;1205;47.984;7.668;2023-04-29T13:07:00;19.20;97.70
2389;DHT22;1205;47.984;7.668;2023-04-29T13:09:26;19.30;98.50
2389;DHT22;1205;47.984;7.668;2023-04-29T13:11:52;19.30;98.40
2389;DHT22;1205;47.984;7.668;2023-04-29T13:14:17;19.10;98.60
2389;DHT22;1205;47.984;7.668;2023-04-29T13:16:44;19.30;99.10
2389;DHT22;1205;47.984;7.668;2023-04-29T13:19:09;19.30;98.30
2389;DHT22;1205;47.984;7.668;2023-04-29T13:21:35;19.30;97.40
2389;DHT22;1205;47.984;7.668;2023-04-29T13:24:00;19.10;98.20
2389;DHT22;1205;47.984;7.668;2023-04-29T13:26:26;19.10;98.80
2389;DHT22;1205;47.984;7.668;2023-04-29T13:28:52;19.30;98.60
2389;DHT22;1205;47.984;7.668;2023-04-29T13:31:17;19.10;98.30
2389;DHT22;1205;47.984;7.668;2023-04-29T13:33:43;19.20;98.80
2389;DHT22;1205;47.984;7.668;2023-04-29T13:36:09;19.00;98.30
2389;DHT22;1205;47.984;7.668;2023-04-29T13:38:34;19.10;98.60
2389;DHT22;1205;47.984;7.668;2023-04-29T13:41:00;19.00;98.20
2389;DHT22;1205;47.984;7.668;2023-04-29T13:43:26;18.90;98.40
2389;DHT22;1205;47.984;7.668;2023-04-29T13:45:51;18.90;98.50
2389;DHT22;1205;47.984;7.668;2023-04-29T13:48:17;18.70;98.20
2389;DHT22;1205;47.984;7.668;2023-04-29T13:50:43;18.80;98.60
2389;DHT22;1205;47.984;7.668;2023-04-29T13:53:10;18.70;97.90
2389;DHT22;1205;47.984;7.668;2023-04-29T13:55:35;18.80;98.40
2389;DHT22;1205;47.984;7.668;2023-04-29T13:58:01;18.90;98.20
2389;DHT22;1205;47.984;7.668;2023-04-29T14:00:27;18.80;98.00
2389;DHT22;1205;47.984;7.668;2023-04-29T14:02:53;18.90;98.30
2389;DHT22;1205;47.984;7.668;2023-04-29T14:05:19;19.00;97.70
2389;DHT22;1205;47.984;7.668;2023-04-29T14:07:45;18.90;97.90
2389;DHT22;1205;47.984;7.668;2023-04-29T14:10:10;19.00;98.30
2389;DHT22;1205;47.984;7.668;2023-04-29T14:12:36;19.10;98.00
2389;DHT22;1205;47.984;7.668;2023-04-29T14:15:02;19.20;97.70
2389;DHT22;1205;47.984;7.668;2023-04-29T14:17:28;19.20;97.90
2389;DHT22;1205;47.984;7.668;2023-04-29T14:19:53;19.00;97.40
2389;DHT22;1205;47.984;7.668;2023-04-29T14:22:19;19.10;97.50
2389;DHT22;1205;47.984;7.668;2023-04-29T14:24:45;19.20;97.60
2389;DHT22;1205;47.984;7.668;2023-04-29T14:27:11;19.10;97.50
2389;DHT22;1205;47.984;7.668;2023-04-29T14:29:36;19.20;97.50
2389;DHT22;1205;47.984;7.668;2023-04-29T14:32:02;19.10;97.20
2389;DHT22;1205;47.984;7.668;2023-04-29T14:34:28;19.00;96.50
2389;DHT22;1205;47.984;7.668;2023-04-29T14:36:53;18.70;97.20
2389;DHT22;1205;47.984;7.668;2023-04-29T14:39:19;18.60;97.20
2389;DHT22;1205;47.984;7.668;2023-04-29T14:41:44;18.50;97.30
2389;DHT22;1205;47.984;7.668;2023-04-29T14:44:11;18.30;97.50
2389;DHT22;1205;47.984;7.668;2023-04-29T14:46:36;18.40;97.40
2389;DHT22;1205;47.984;7.668;2023-04-29T14:49:02;18.40;97.30
2389;DHT22;1205;47.984;7.668;2023-04-29T14:51:28;18.20;97.30
2389;DHT22;1205;47.984;7.668;2023-04-29T14:53:54;18.10;97.50
2389;DHT22;1205;47.984;7.668;2023-04-29T14:56:19;18.20;97.50
2389;DHT22;1205;47.984;7.668;2023-04-29T14:58:45;18.10;97.30
2389;DHT22;1205;47.984;7.668;2023-04-29T15:01:11;18.00;97.40
2389;DHT22;1205;47.984;7.668;2023-04-29T15:03:36;17.90;97.70
2389;DHT22;1205;47.984;7.668;2023-04-29T15:06:02;17.90;97.60
2389;DHT22;1205;47.984;7.668;2023-04-29T15:08:29;17.80;98.00
2389;DHT22;1205;47.984;7.668;2023-04-29T15:10:55;18.00;98.10
2389;DHT22;1205;47.984;7.668;2023-04-29T15:13:20;18.00;98.00
2389;DHT22;1205;47.984;7.668;2023-04-29T15:15:46;18.10;97.90
2389;DHT22;1205;47.984;7.668;2023-04-29T15:18:12;18.10;97.90
2389;DHT22;1205;47.984;7.668;2023-04-29T15:20:37;18.10;97.30
2389;DHT22;1205;47.984;7.668;2023-04-29T15:23:04;18.00;97.40
2389;DHT22;1205;47.984;7.668;2023-04-29T15:25:30;18.20;97.30
2389;DHT22;1205;47.984;7.668;2023-04-29T15:27:57;18.20;97.00
2389;DHT22;1205;47.984;7.668;2023-04-29T15:30:25;18.20;97.40
2389;DHT22;1205;47.984;7.668;2023-04-29T15:32:51;18.30;97.40
2389;DHT22;1205;47.984;7.668;2023-04-29T15:35:18;18.10;97.20
2389;DHT22;1205;47.984;7.668;2023-04-29T15:37:43;18.00;97.40
2389;DHT22;1205;47.984;7.668;2023-04-29T15:40:09;18.00;97.30
2389;DHT22;1205;47.984;7.668;2023-04-29T15:42:35;17.90;97.00
2389;DHT22;1205;47.984;7.668;2023-04-29T15:45:00;17.80;96.90
2389;DHT22;1205;47.984;7.668;2023-04-29T15:47:26;17.70;97.70
2389;DHT22;1205;47.984;7.668;2023-04-29T15:49:51;17.70;97.60
2389;DHT22;1205;47.984;7.668;2023-04-29T15:52:17;17.90;97.70
2389;DHT22;1205;47.984;7.668;2023-04-29T15:54:43;17.90;97.20
2389;DHT22;1205;47.984;7.668;2023-04-29T15:57:08;17.90;97.30
2389;DHT22;1205;47.984;7.668;2023-04-29T15:59:34;17.80;97.20
2389;DHT22;1205;47.984;7.668;2023-04-29T16:01:59;17.70;97.00
2389;DHT22;1205;47.984;7.668;2023-04-29T16:04:25;17.70;97.20
2389;DHT22;1205;47.984;7.668;2023-04-29T16:06:54;17.60;97.00
2389;DHT22;1205;47.984;7.668;2023-04-29T16:09:20;17.50;97.30
2389;DHT22;1205;47.984;7.668;2023-04-29T16:11:45;17.40;97.50
2389;DHT22;1205;47.984;7.668;2023-04-29T16:14:11;17.40;97.30
2389;DHT22;1205;47.984;7.668;2023-04-29T16:16:37;17.50;96.90
2389;DHT22;1205;47.984;7.668;2023-04-29T16:19:02;17.40;97.00
2389;DHT22;1205;47.984;7.668;2023-04-29T16:21:28;17.50;97.10
2389;DHT22;1205;47.984;7.668;2023-04-29T16:23:53;17.60;97.00
2389;DHT22;1205;47.984;7.668;2023-04-29T16:26:19;17.70;96.90
2389;DHT22;1205;47.984;7.668;2023-04-29T16:28:44;17.50;96.40
2389;DHT22;1205;47.984;7.668;2023-04-29T16:31:10;17.30;96.60